createdAt,value
2023-02-18T00:10:28.211Z,4.49
2023-02-18T00:22:28.732Z,4.98
2023-02-18T00:34:29.182Z,4.86
2023-02-18T00:46:29.625Z,5.03
2023-02-18T00:58:30.055Z,5.21
2023-02-18T01:10:30.518Z,4.87
2023-02-18T01:22:30.980Z,4.81
2023-02-18T01:34:31.415Z,4.57
2023-02-18T01:46:31.877Z,4.76
2023-02-18T01:58:32.338Z,4.98
2023-02-18T02:10:32.814Z,5.18
2023-02-18T02:22:33.204Z,5.35
2023-02-18T02:34:33.658Z,5.40
2023-02-18T02:46:34.157Z,5.70
2023-02-18T02:58:34.606Z,5.90
2023-02-18T03:10:35.040Z,6.00
2023-02-18T03:22:35.487Z,6.13
2023-02-18T03:34:35.938Z,6.00
2023-02-18T03:46:36.375Z,5.93
2023-02-18T03:58:36.817Z,6.47
2023-02-18T04:10:37.306Z,6.33
2023-02-18T04:22:37.747Z,6.08
2023-02-18T04:34:38.230Z,6.20
2023-02-18T04:46:38.630Z,6.20
2023-02-18T04:58:39.074Z,6.28
2023-02-18T05:10:39.515Z,6.17
2023-02-18T05:22:40.057Z,6.18
2023-02-18T05:34:40.450Z,6.03
2023-02-18T05:46:40.999Z,5.95
2023-02-18T05:58:41.352Z,5.96
2023-02-18T06:10:41.857Z,5.93
2023-02-18T06:22:42.300Z,6.21
2023-02-18T06:34:42.743Z,6.24
2023-02-18T06:46:43.205Z,6.35
2023-02-18T06:58:43.612Z,6.60
2023-02-18T07:10:44.062Z,7.00
2023-02-18T07:22:44.505Z,7.52
2023-02-18T07:34:44.975Z,8.01
2023-02-18T07:46:47.382Z,8.49
2023-02-18T07:58:45.900Z,8.88
2023-02-18T08:10:46.306Z,10.05
2023-02-18T08:22:46.798Z,12.30
2023-02-18T08:34:47.244Z,13.40
2023-02-18T08:46:47.762Z,14.43
2023-02-18T08:58:48.152Z,14.89
2023-02-18T09:10:48.624Z,15.39
2023-02-18T09:22:49.061Z,15.71
2023-02-18T09:34:49.514Z,15.90
2023-02-18T09:46:49.955Z,16.25
2023-02-18T09:58:50.409Z,16.23
2023-02-18T10:10:50.931Z,16.75
2023-02-18T10:22:51.286Z,16.39
2023-02-18T10:34:51.784Z,16.42
2023-02-18T10:46:52.317Z,16.81
2023-02-18T10:58:52.697Z,17.21
2023-02-18T11:10:53.168Z,17.20
2023-02-18T11:22:53.611Z,17.42
2023-02-18T11:34:54.066Z,17.98
2023-02-18T11:46:54.555Z,17.86
2023-02-18T11:58:54.990Z,18.21
2023-02-18T12:10:55.440Z,17.99
2023-02-18T12:22:55.897Z,18.86
2023-02-18T12:34:56.375Z,18.80
2023-02-18T12:46:56.825Z,18.88
2023-02-18T12:58:57.266Z,18.85
2023-02-18T13:10:57.726Z,18.83
2023-02-18T13:22:58.212Z,19.12
2023-02-18T13:34:58.604Z,19.51
2023-02-18T13:46:59.039Z,18.94
2023-02-18T13:58:59.514Z,18.50
2023-02-18T14:10:59.970Z,18.10
2023-02-18T14:23:00.463Z,18.03
2023-02-18T14:35:00.929Z,17.13
2023-02-18T14:47:01.345Z,16.66
2023-02-18T14:59:01.858Z,16.32
2023-02-18T15:11:02.289Z,15.73
2023-02-18T15:23:02.753Z,14.65
2023-02-18T15:35:03.173Z,13.89
2023-02-18T15:47:03.633Z,13.12
2023-02-18T15:59:04.090Z,12.64
2023-02-18T16:11:04.529Z,12.13
2023-02-18T16:23:04.981Z,11.18
2023-02-18T16:35:05.462Z,10.83
2023-02-18T16:47:05.916Z,10.52
2023-02-18T16:59:06.318Z,9.65
2023-02-18T17:11:06.837Z,8.78
2023-02-18T17:23:07.324Z,8.43
2023-02-18T17:35:07.727Z,8.06
2023-02-18T17:47:08.177Z,7.06
2023-02-18T17:59:08.624Z,7.06
2023-02-18T18:11:09.446Z,7.62
2023-02-18T18:23:09.534Z,7.43
2023-02-18T18:35:09.988Z,7.72
2023-02-18T18:47:10.438Z,8.05
2023-02-18T18:59:10.904Z,7.88
2023-02-18T19:11:11.624Z,8.21
2023-02-18T19:23:11.836Z,8.16
2023-02-18T19:35:12.253Z,8.64
2023-02-18T19:47:12.703Z,8.13
2023-02-18T19:59:13.168Z,8.53
2023-02-18T20:11:13.600Z,9.08
2023-02-18T20:23:14.054Z,9.80
2023-02-18T20:35:14.526Z,14.33
2023-02-18T20:47:14.976Z,14.67
2023-02-18T20:59:15.441Z,14.78
2023-02-18T21:11:15.878Z,14.65
2023-02-18T21:23:16.366Z,13.63
2023-02-18T21:35:16.805Z,14.34
2023-02-18T21:47:17.272Z,14.12
2023-02-18T21:59:17.717Z,14.03
2023-02-18T22:11:18.191Z,13.93
2023-02-18T22:23:18.614Z,13.52
2023-02-18T22:35:19.045Z,13.42
2023-02-18T22:47:19.544Z,12.76
2023-02-18T22:59:20.000Z,12.88
2023-02-18T23:11:20.433Z,12.46
2023-02-18T23:23:20.864Z,11.20
2023-02-18T23:35:21.335Z,10.49
2023-02-18T23:47:21.793Z,10.33
2023-02-18T23:59:22.230Z,10.04
